Flight Track Log - Related Links

Times and Time Zones

All times are in EDT time to prevent confusion due to time zone crossing. See the JBU41 flight status page for this flight to view local times or setup timezone preferences in your user account.


Time Position Orientation Groundspeed Altitude Reporting Facility
EDT Latitude Longitude Course Direction KTS MPH feet Rate Location/Type
Fri 05:15:23 PM 26.0770 -80.1350 91° East 157 181 800  Level FlightAware ADS-B
Fri 05:15:51 PM 26.0790 -80.1090 85° East 182 209 1,700 1,674 Climbing FlightAware ADS-B
Fri 05:16:06 PM 26.0810 -80.0950 81° East 200 230 2,000 1,167 Climbing FlightAware ADS-B
Fri 05:16:27 PM 26.0830 -80.0700 85° East 236 272 2,400 1,273 Climbing FlightAware ADS-B
Fri 05:16:39 PM 26.0850 -80.0560 81° East 254 292 2,700 2,167 Climbing FlightAware ADS-B
Fri 05:17:03 PM 26.0880 -80.0230 84° East 276 318 3,700 2,885 Climbing FlightAware ADS-B
Fri 05:17:31 PM 26.0840 -79.9820 96° East 286 329 5,200 3,375 Climbing FlightAware ADS-B
Fri 05:17:51 PM 26.0790 -79.9540 101° East 285 328 6,400 3,600 Climbing FlightAware ADS-B
Fri 05:18:11 PM 26.0740 -79.9250 101° East 286 329 7,600 3,273 Climbing FlightAware ADS-B
Fri 05:18:24 PM 26.0700 -79.9070 104° East 287 330 8,200 3,000 Climbing FlightAware ADS-B
Fri 05:18:47 PM 26.0640 -79.8720 101° East 295 339 9,400 2,509 Climbing FlightAware ADS-B
Fri 05:19:19 PM 26.0560 -79.8240 100° East 299 344 10,500 1,701 Climbing FlightAware ADS-B
Fri 05:19:54 PM 26.0460 -79.7690 101° East 336 387 11,300 1,521 Climbing FlightAware ADS-B
Fri 05:20:30 PM 26.0340 -79.7040 102° East 364 419 12,300 1,865 Climbing FlightAware ADS-B
Fri 05:21:08 PM 26.0210 -79.6320 101° East 377 434 13,600 2,083 Climbing FlightAware ADS-B
Fri 05:21:42 PM 26.0060 -79.5720 106° East 380 437 14,800 2,182 Climbing FlightAware ADS-B
Fri 05:21:52 PM 25.9960 -79.5530 120° Southeast 381 438 15,200 2,400 Climbing FlightAware ADS-B
Fri 05:22:07 PM 25.9800 -79.5360 136° Southeast 378 435 15,800 2,400 Climbing FlightAware ADS-B
Fri 05:22:22 PM 25.9560 -79.5200 149° Southeast 367 422 16,400 2,160 Climbing FlightAware ADS-B
Fri 05:22:57 PM 25.8950 -79.5010 164° South 381 438 17,600 2,000 Climbing FlightAware ADS-B
Fri 05:23:37 PM 25.8260 -79.4880 170° South 389 448 18,900 1,920 Climbing FlightAware ADS-B
Fri 05:24:12 PM 25.7610 -79.4760 171° South 395 455 20,000 1,760 Climbing FlightAware ADS-B
Fri 05:24:52 PM 25.6890 -79.4630 171° South 395 455 21,100 1,629 Climbing FlightAware ADS-B
Fri 05:25:22 PM 25.6350 -79.4530 171° South 409 471 21,900 1,477 Climbing FlightAware ADS-B
Fri 05:25:57 PM 25.5690 -79.4410 171° South 408 470 22,700 1,457 Climbing FlightAware ADS-B
Fri 05:26:32 PM 25.5000 -79.4290 171° South 421 484 23,600 1,371 Climbing FlightAware ADS-B
Fri 05:27:07 PM 25.4340 -79.4170 171° South 421 484 24,300 1,286 Climbing FlightAware ADS-B
Fri 05:27:42 PM 25.3610 -79.4040 171° South 436 502 25,100 1,286 Climbing FlightAware ADS-B
Fri 05:28:17 PM 25.2930 -79.3920 171° South 443 510 25,800 1,200 Climbing FlightAware ADS-B
Fri 05:28:52 PM 25.2200 -79.3780 170° South 443 510 26,500 1,114 Climbing FlightAware ADS-B
Fri 05:29:27 PM 25.1480 -79.3660 171° South 456 525 27,100 1,120 Climbing FlightAware ADS-B
Fri 05:30:07 PM 25.0630 -79.3500 170° South 453 521 27,900 1,120 Climbing FlightAware ADS-B
Fri 05:30:42 PM 24.9900 -79.3370 171° South 456 525 28,500 923 Climbing FlightAware ADS-B
Fri 05:31:12 PM 24.9240 -79.3250 171° South 472 543 28,900 857 Climbing FlightAware ADS-B
Fri 05:31:52 PM 24.8400 -79.3100 171° South 471 542 29,500 857 Climbing FlightAware ADS-B
Fri 05:32:22 PM 24.7720 -79.2980 171° South 475 547 29,900 857 Climbing FlightAware ADS-B
Fri 05:33:02 PM 24.6850 -79.2830 171° South 486 559 30,500 1,114 Climbing FlightAware ADS-B
Fri 05:33:32 PM 24.6170 -79.2700 170° South 485 558 31,200 1,477 Climbing FlightAware ADS-B
Fri 05:34:07 PM 24.5400 -79.2570 171° South 471 542 32,100 1,457 Climbing FlightAware ADS-B
Fri 05:34:42 PM 24.4620 -79.2430 171° South 470 541 32,900 1,333 Climbing FlightAware ADS-B
Fri 05:35:19 PM 24.3880 -79.2300 171° South 472 543 33,700 1,125 Climbing FlightAware ADS-B
Fri 05:36:02 PM 24.2890 -79.2120 171° South 474 545 34,400 769 Climbing FlightAware ADS-B
Fri 05:36:37 PM 24.2140 -79.1990 171° South 473 544 34,700 686 Climbing FlightAware ADS-B
Fri 05:37:12 PM 24.1360 -79.1850 171° South 474 545 35,200 1,114 Climbing FlightAware ADS-B
Fri 05:37:47 PM 24.0600 -79.1710 170° South 469 540 36,000 1,114 Climbing FlightAware ADS-B
Fri 05:38:22 PM 23.9840 -79.1580 171° South 476 548 36,500 857 Climbing FlightAware ADS-B
Fri 05:38:57 PM 23.9090 -79.1450 171° South 476 548 37,000 395 Climbing FlightAware ADS-B
Fri 05:39:38 PM 23.8320 -79.1290 169° South 470 541 37,000  Level FlightAware ADS-B
Fri 05:40:32 PM 23.7130 -79.1000 167° South 473 544 37,000  Level FlightAware ADS-B
Fri 05:41:08 PM 23.6480 -79.0830 167° South 473 544 37,000  Level FlightAware ADS-B
Fri 05:41:46 PM 23.5790 -79.0660 167° South 473 544 37,000  Level FlightAware ADS-B
Fri 05:42:13 PM 23.4810 -79.0490 171° South 37,000  Level FlightAware ADS-B
Fri 05:42:47 PM 23.4080 -79.0330 169° South 479 551 37,000  Level FlightAware ADS-B
Fri 05:43:35 PM 23.3080 -79.0110 169° South 479 551 37,000  Level FlightAware ADS-B
Fri 05:44:23 PM 23.2080 -78.9880 168° South 478 550 37,000  Level FlightAware ADS-B
Fri 05:44:59 PM 23.1420 -78.9730 168° South 478 550 37,000  Level FlightAware ADS-B
Fri 05:45:35 PM 23.0760 -78.9580 168° South 478 550 37,000  Level FlightAware ADS-B
Fri 05:46:11 PM 23.0090 -78.9430 168° South 478 550 37,000  Level FlightAware ADS-B
Fri 05:46:50 PM 22.9380 -78.9260 168° South 478 550 37,000  Level FlightAware ADS-B
Fri 05:47:27 PM 22.8700 -78.9100 168° South 478 550 37,000  Level FlightAware ADS-B
Fri 05:48:03 PM 22.8030 -78.8950 168° South 478 550 37,000  Level FlightAware ADS-B
Fri 05:48:39 PM 22.7370 -78.8800 168° South 478 550 37,000  Level FlightAware ADS-B
Fri 05:49:15 PM 22.6710 -78.8650 168° South 478 550 37,000  Level FlightAware ADS-B
Fri 05:49:51 PM 22.6050 -78.8490 167° South 478 550 37,000  Level FlightAware ADS-B
Fri 05:50:28 PM 22.5370 -78.8340 168° South 478 550 37,000  Level FlightAware ADS-B
Fri 05:51:05 PM 22.4690 -78.8180 168° South 478 550 37,000  Level FlightAware ADS-B
Fri 05:51:41 PM 22.4030 -78.8030 168° South 478 550 37,000  Level FlightAware ADS-B
Fri 05:52:17 PM 22.3360 -78.7880 168° South 478 550 37,000  Level FlightAware ADS-B
Fri 05:52:53 PM 22.2700 -78.7720 167° South 478 550 37,000  Level FlightAware ADS-B
Fri 05:53:29 PM 22.2040 -78.7570 168° South 478 550 37,000  Level FlightAware ADS-B
Fri 05:56:00 PM 21.8816 -78.7661 165° South  Level FlightAware Approximate
Fri 05:57:00 PM 21.7587 -78.7310 165° South  Level FlightAware Approximate
Fri 05:58:00 PM 21.6357 -78.6960 165° South  Level FlightAware Approximate
Fri 05:59:00 PM 21.5127 -78.6609 165° South  Level FlightAware Approximate
Fri 06:00:00 PM 21.3897 -78.6260 165° South  Level FlightAware Approximate
Fri 06:01:00 PM 21.2667 -78.5911 165° South  Level FlightAware Approximate
Fri 06:02:00 PM 21.1437 -78.5563 165° South  Level FlightAware Approximate
Fri 06:03:00 PM 21.0207 -78.5215 165° South  Level FlightAware Approximate
Fri 06:04:00 PM 20.8977 -78.4868 165° South  Level FlightAware Approximate
Fri 06:05:00 PM 20.7747 -78.4521 165° South  Level FlightAware Approximate
Fri 06:06:00 PM 20.6517 -78.4175 165° South  Level FlightAware Approximate
Fri 06:07:00 PM 20.5287 -78.3830 165° South  Level FlightAware Approximate
Fri 06:08:00 PM 20.4056 -78.3485 165° South  Level FlightAware Approximate
Fri 06:09:00 PM 20.2826 -78.3141 165° South  Level FlightAware Approximate
Fri 06:10:00 PM 20.1595 -78.2797 165° South  Level FlightAware Approximate
Fri 06:11:00 PM 20.0364 -78.2454 165° South  Level FlightAware Approximate
Fri 06:12:00 PM 19.9134 -78.2111 165° South  Level FlightAware Approximate
Fri 06:13:00 PM 19.7904 -78.1764 165° South  Level FlightAware Approximate
Fri 06:14:00 PM 19.6675 -78.1419 165° South  Level FlightAware Approximate
Fri 06:15:00 PM 19.5445 -78.1074 165° South  Level FlightAware Approximate
Fri 06:16:00 PM 19.4215 -78.0729 165° South  Level FlightAware Approximate
Fri 06:17:00 PM 19.2985 -78.0385 165° South  Level FlightAware Approximate
Fri 06:18:00 PM 19.1755 -78.0042 165° South  Level FlightAware Approximate
Fri 06:19:00 PM 19.0525 -77.9698 165° South  Level FlightAware Approximate
Fri 06:20:00 PM 18.9294 -77.9356 165° South  Level FlightAware Approximate
Fri 06:21:00 PM 18.8064 -77.9014 165° South  Level FlightAware Approximate
Fri 06:22:00 PM 18.6834 -77.8672 165° South  Level FlightAware Approximate
Fri 06:23:00 PM 18.5604 -77.8332 165° South  Level FlightAware Approximate
Fri 06:24:00 PM 18.4373 -77.7991 165° South  Level FlightAware Approximate
Fri 06:25:00 PM 18.3143 -77.7651 165° South  Level FlightAware Approximate
Fri 06:26:00 PM 18.1912 -77.7311 165° South  Level FlightAware Approximate
Fri 06:27:00 PM 18.0681 -77.6972 165° South  Level FlightAware Approximate
Fri 06:28:00 PM 17.9451 -77.6634 165° South  Level FlightAware Approximate
Fri 06:29:00 PM 17.8220 -77.6296 165° South  Level FlightAware Approximate
Fri 06:30:00 PM 17.6989 -77.5958 165° South  Level FlightAware Approximate
Fri 06:31:00 PM 17.5758 -77.5621 165° South  Level FlightAware Approximate
Fri 06:32:00 PM 17.4527 -77.5284 165° South  Level FlightAware Approximate
Fri 06:33:00 PM 17.3297 -77.4948 165° South  Level FlightAware Approximate
Fri 06:34:00 PM 17.2066 -77.4612 165° South  Level FlightAware Approximate
Fri 06:35:00 PM 17.0834 -77.4277 165° South  Level FlightAware Approximate
Fri 06:36:00 PM 16.9603 -77.3942 165° South  Level FlightAware Approximate
Fri 06:37:00 PM 16.8372 -77.3607 165° South  Level FlightAware Approximate
Fri 06:38:00 PM 16.7141 -77.3273 165° South  Level FlightAware Approximate
Fri 06:39:00 PM 16.5910 -77.2939 165° South  Level FlightAware Approximate
Fri 06:40:00 PM 16.4678 -77.2606 165° South  Level FlightAware Approximate
Fri 06:41:00 PM 16.3447 -77.2273 165° South  Level FlightAware Approximate
Fri 06:42:00 PM 16.2215 -77.1941 165° South  Level FlightAware Approximate
Fri 06:43:00 PM 16.0984 -77.1609 165° South  Level FlightAware Approximate
Fri 06:44:00 PM 15.9752 -77.1277 165° South  Level FlightAware Approximate
Fri 06:45:00 PM 15.8521 -77.0946 165° South  Level FlightAware Approximate
Fri 06:46:00 PM 15.7289 -77.0616 166° South  Level FlightAware Approximate
Fri 06:47:00 PM 15.6057 -77.0285 166° South  Level FlightAware Approximate
Fri 06:48:00 PM 15.4826 -76.9955 166° South  Level FlightAware Approximate
Fri 06:49:00 PM 15.3594 -76.9626 166° South  Level FlightAware Approximate
Fri 06:50:00 PM 15.2362 -76.9297 166° South  Level FlightAware Approximate
Fri 06:51:00 PM 15.1130 -76.8968 166° South  Level FlightAware Approximate
Fri 06:52:00 PM 14.9897 -76.8646 169° South  Level FlightAware Approximate
Fri 06:53:00 PM 14.8649 -76.8392 169° South  Level FlightAware Approximate
Fri 06:54:00 PM 14.7400 -76.8138 169° South  Level FlightAware Approximate
Fri 06:55:00 PM 14.6152 -76.7885 169° South  Level FlightAware Approximate
Fri 06:56:00 PM 14.4904 -76.7632 169° South  Level FlightAware Approximate
Fri 06:57:00 PM 14.3655 -76.7379 169° South  Level FlightAware Approximate
Fri 06:58:00 PM 14.2407 -76.7127 169° South  Level FlightAware Approximate
Fri 06:59:00 PM 14.1159 -76.6875 169° South  Level FlightAware Approximate
Fri 07:00:00 PM 13.9910 -76.6623 169° South  Level FlightAware Approximate
Fri 07:01:00 PM 13.8662 -76.6371 169° South  Level FlightAware Approximate
Fri 07:02:00 PM 13.7413 -76.6120 169° South  Level FlightAware Approximate
Fri 07:03:00 PM 13.6165 -76.5869 169° South  Level FlightAware Approximate
Fri 07:04:00 PM 13.4916 -76.5618 169° South  Level FlightAware Approximate
Fri 07:05:00 PM 13.3668 -76.5368 169° South  Level FlightAware Approximate
Fri 07:06:00 PM 13.2419 -76.5117 169° South  Level FlightAware Approximate
Fri 07:07:00 PM 13.1171 -76.4867 169° South  Level FlightAware Approximate
Fri 07:08:00 PM 12.9922 -76.4617 169° South  Level FlightAware Approximate
Fri 07:09:00 PM 12.8673 -76.4368 169° South  Level FlightAware Approximate
Fri 07:10:00 PM 12.7425 -76.4117 169° South  Level FlightAware Approximate
Fri 07:11:00 PM 12.6176 -76.3867 169° South  Level FlightAware Approximate
Fri 07:11:15 PM 11.7870 -76.2310 169° South 491 565 37,000  Level FlightAware ADS-B
Fri 07:11:54 PM 11.7130 -76.2160 169° South 491 565 37,000  Level FlightAware ADS-B
Fri 07:12:00 PM 12.4928 -76.3617 169° South  Level FlightAware Approximate
Fri 07:12:36 PM 11.6020 -76.1950 170° South 490 564 37,000  Level FlightAware ADS-B
Fri 07:13:15 PM 11.5290 -76.1800 169° South 490 564 37,000  Level FlightAware ADS-B
Fri 07:13:52 PM 11.4280 -76.1600 169° South 486 559 37,000  Level FlightAware ADS-B
Fri 07:14:43 PM 11.3250 -76.1390 169° South 485 558 37,000  Level FlightAware ADS-B
Fri 07:15:16 PM 11.2400 -76.1220 169° South 486 559 37,000  Level FlightAware ADS-B
Fri 07:15:56 PM 11.1520 -76.1050 169° South 485 558 37,000  Level FlightAware ADS-B
Fri 07:16:31 PM 11.0730 -76.0890 169° South 485 558 37,000  Level FlightAware ADS-B
Fri 07:17:11 PM 10.9850 -76.0720 169° South 485 558 37,000  Level FlightAware ADS-B
Fri 07:17:41 PM 10.9190 -76.0590 169° South 485 558 37,000  Level FlightAware ADS-B
Fri 07:18:16 PM 10.8410 -76.0430 169° South 485 558 37,000  Level FlightAware ADS-B
Fri 07:18:51 PM 10.7670 -76.0290 169° South 486 559 37,000  Level FlightAware ADS-B
Fri 07:19:27 PM 10.6890 -76.0130 169° South 487 560 37,000  Level FlightAware ADS-B
Fri 07:20:01 PM 10.6090 -75.9970 169° South 486 559 37,000  Level FlightAware ADS-B
Fri 07:20:36 PM 10.5320 -75.9820 169° South 485 558 37,000  Level FlightAware ADS-B
Fri 07:21:11 PM 10.4540 -75.9670 169° South 484 557 37,000  Level FlightAware ADS-B
Fri 07:21:51 PM 10.3670 -75.9500 169° South 485 558 37,000  Level FlightAware ADS-B
Fri 07:22:21 PM 10.2990 -75.9360 169° South 485 558 37,000  Level FlightAware ADS-B
Fri 07:22:56 PM 10.2240 -75.9210 169° South 484 557 37,000 80 Level FlightAware ADS-B
Fri 07:23:36 PM 10.1340 -75.9040 169° South 482 555 37,100 86 Climbing FlightAware ADS-B
Fri 07:24:06 PM 10.0700 -75.8910 169° South 481 554 37,100 -92 Level FlightAware ADS-B
Fri 07:24:41 PM 9.9920 -75.8760 169° South 478 550 37,000 -86 Descending FlightAware ADS-B
Fri 07:25:16 PM 9.9160 -75.8610 169° South 477 549 37,000  Level FlightAware ADS-B
Fri 07:25:51 PM 9.8440 -75.8460 168° South 476 548 37,000  Level FlightAware ADS-B
Fri 07:26:26 PM 9.7640 -75.8310 170° South 474 545 37,000  Level FlightAware ADS-B
Fri 07:27:01 PM 9.6910 -75.8160 169° South 473 544 37,000  Level FlightAware ADS-B
Fri 07:27:36 PM 9.6190 -75.8020 169° South 472 543 37,000  Level FlightAware ADS-B
Fri 07:28:26 PM 9.5070 -75.7800 169° South 472 543 37,000  Level FlightAware ADS-B
Fri 07:29:01 PM 9.4300 -75.7650 169° South 473 544 37,000  Level FlightAware ADS-B
Fri 07:29:41 PM 9.3490 -75.7490 169° South 474 545 37,000  Level FlightAware ADS-B
Fri 07:30:16 PM 9.2710 -75.7340 169° South 475 547 37,000  Level FlightAware ADS-B
Fri 07:30:51 PM 9.2030 -75.7210 169° South 476 548 37,000  Level FlightAware ADS-B
Fri 07:31:48 PM 9.0800 -75.6960 169° South 478 550 37,000  Level FlightAware ADS-B
Fri 07:32:21 PM 9.0070 -75.6820 169° South 478 550 37,000  Level FlightAware ADS-B
Fri 07:33:01 PM 8.9160 -75.6640 169° South 480 552 37,000  Level FlightAware ADS-B
Fri 07:33:40 PM 8.8440 -75.6500 169° South 480 552 37,000  Level FlightAware ADS-B
Fri 07:34:16 PM 8.7770 -75.6370 169° South 480 552 37,000  Level FlightAware ADS-B
Fri 07:34:52 PM 8.7100 -75.6240 169° South 480 552 37,000  Level FlightAware ADS-B
Fri 07:35:28 PM 8.6440 -75.6110 169° South 480 552 37,000  Level FlightAware ADS-B
Fri 07:36:04 PM 8.5770 -75.5980 169° South 480 552 37,000  Level FlightAware ADS-B
Fri 07:37:06 PM 8.3830 -75.5600 169° South 476 548 37,000  Level FlightAware ADS-B
Fri 07:37:56 PM 8.2680 -75.5380 169° South 479 551 37,000  Level FlightAware ADS-B
Fri 07:38:26 PM 8.2050 -75.5250 168° South 477 549 37,000 78 Level FlightAware ADS-B
Fri 07:39:13 PM 8.1170 -75.5080 169° South 476 548 37,100 72 Climbing FlightAware ADS-B
Fri 07:39:49 PM 8.0510 -75.4950 169° South 476 548 37,100 -82 Level FlightAware ADS-B
Fri 07:40:26 PM 7.9490 -75.4760 170° South 469 540 37,000 -73 Descending FlightAware ADS-B
Fri 07:41:11 PM 7.8560 -75.4580 169° South 466 536 37,000  Level FlightAware ADS-B
Fri 07:41:41 PM 7.7830 -75.4510 175° South 465 535 37,000  Level FlightAware ADS-B
Fri 07:42:26 PM 7.6890 -75.4440 176° South 465 535 37,000  Level FlightAware ADS-B
Fri 07:43:01 PM 7.6270 -75.4390 175° South 465 535 37,000  Level FlightAware ADS-B
Fri 07:43:36 PM 7.5350 -75.4320 176° South 467 537 37,000  Level FlightAware ADS-B
Fri 07:44:06 PM 7.4710 -75.4270 176° South 468 539 37,000  Level FlightAware ADS-B
Fri 07:44:46 PM 7.3860 -75.4200 175° South 469 540 37,000 -675 Level FlightAware ADS-B
Fri 07:45:26 PM 7.3000 -75.4130 175° South 474 545 36,100 -2,320 Descending FlightAware ADS-B
Fri 07:46:01 PM 7.2190 -75.4070 176° South 484 557 34,100 -3,120 Descending FlightAware ADS-B
Fri 07:46:41 PM 7.1280 -75.3990 175° South 480 552 32,200 -2,657 Descending FlightAware ADS-B
Fri 07:47:11 PM 7.0630 -75.3940 176° South 463 533 31,000 -2,677 Descending FlightAware ADS-B
Fri 07:47:46 PM 6.9910 -75.3880 175° South 453 521 29,300 -2,800 Descending FlightAware ADS-B
Fri 07:48:26 PM 6.9100 -75.3820 176° South 434 499 27,500 -2,486 Descending FlightAware ADS-B
Fri 07:48:56 PM 6.8470 -75.3770 175° South 425 489 26,400 -2,031 Descending FlightAware ADS-B
Fri 07:49:31 PM 6.7840 -75.3720 175° South 414 476 25,300 -2,091 Descending FlightAware ADS-B
Fri 07:50:02 PM 6.7270 -75.3720 180° South 411 473 24,100 -2,364 Descending FlightAware ADS-B
Fri 07:50:37 PM 6.6580 -75.3760 183° South 404 465 22,700 -1,667 Descending FlightAware ADS-B
Fri 07:51:32 PM 6.5680 -75.3820 184° South 403 464 21,600 -717 Descending FlightAware ADS-B
Fri 07:52:09 PM 6.5100 -75.3860 184° South 403 464 21,600  Level FlightAware ADS-B
Fri 07:52:45 PM 6.4530 -75.3900 184° South 403 464 21,600  Level FlightAware ADS-B
Fri 07:53:21 PM 6.3960 -75.3940 184° South 403 464 21,600  Level FlightAware ADS-B
Fri 07:53:57 PM 6.3390 -75.3980 184° South 403 464 21,600  Level FlightAware ADS-B
Fri 07:54:33 PM 6.2820 -75.4020 184° South 403 464 21,600  Level FlightAware ADS-B
Fri 07:57:00 PM 6.1645 -75.4231 259° West  Level Estimated
Fri 07:58:00 PM 6.1645 -75.4231 259° West  Level Estimated
Fri 07:59:00 PM 6.1645 -75.4231 259° West  Level Estimated
Fri 08:00:00 PM 6.1645 -75.4231 259° West  Level Estimated
Fri 08:01:00 PM 6.1645 -75.4231 259° West  Level Estimated
Fri 08:02:00 PM 6.1645 -75.4231 259° West  Level Estimated
Fri 08:03:00 PM 6.1645 -75.4231 259° West  Level Estimated
Fri 08:04:00 PM 6.1645 -75.4231 259° West  Level Estimated
Fri 08:05:00 PM 6.1645 -75.4231 259° West  Level Estimated
Fri 08:06:00 PM 6.1645 -75.4231 259° West  Level Estimated

Login

Don't have an account? Register now (free) for customized features, flight alerts, and more!